Terminal Aerodrome Forecast
Issued by NWS

Home | Current Version | Previous Version | Text Only | Print | Product List | Glossary On
Versions: 1 2 3 4 5 6 7 8 9 10 11 12 13 14 15 16 17
000
FTUS46 KOTX 232324
TAFPUW
TAF
KPUW 232324Z 2400/2424 23009KT P6SM VCSH FEW025 SCT030 BKN040
     FM240300 23009G18KT P6SM -SHRA BKN050 OVC090
     FM240800 22008KT P6SM BKN030 OVC040
     FM241500 26008KT P6SM -SHRA BKN025 OVC050=

USA.gov is the U.S. government's official web portal to all federal, state and local government web resources and services.